Time;durP1;ratioP1;P1;durP2;ratioP2;P2;SDS_P1;SDS_P2;PMS_P1;PMS_P2;Temp;Humidity;BMP_temperature;BMP_pressure;BME280_temperature;BME280_humidity;BME280_pressure;Samples;Min_cycle;Max_cycle;Signal;HPM_P1;HPM_P2
2022/04/15 00:00:43;;;;;;;229.32;218.35;;;11.90;99.90;;;;;;5093683;28;20195;-65
2022/04/15 00:03:11;;;;;;;230.68;219.82;;;11.90;99.90;;;;;;5059575;28;20648;-65
2022/04/15 00:05:37;;;;;;;196.30;186.38;;;11.90;99.90;;;;;;5076435;28;20185;-64
2022/04/15 00:08:10;;;;;;;125.10;117.70;;;11.80;99.90;;;;;;5094738;28;20639;-65
2022/04/15 00:10:39;;;;;;;124.97;117.95;;;11.80;99.90;;;;;;5076450;28;20211;-65
2022/04/15 00:13:06;;;;;;;140.20;132.73;;;11.80;99.90;;;;;;5094379;28;20184;-65
2022/04/15 00:15:33;;;;;;;140.07;132.25;;;11.80;99.90;;;;;;5094016;28;20181;-65
2022/04/15 00:17:58;;;;;;;170.02;161.25;;;11.80;99.90;;;;;;5093202;28;20204;-66
2022/04/15 00:20:26;;;;;;;181.00;171.65;;;11.70;99.90;;;;;;5093494;28;20234;-65
2022/04/15 00:22:52;;;;;;;166.45;157.20;;;11.70;99.90;;;;;;5095182;28;20259;-65
2022/04/15 00:25:19;;;;;;;180.63;171.05;;;11.70;99.90;;;;;;5059345;28;20663;-65
2022/04/15 00:27:45;;;;;;;160.63;152.43;;;11.70;99.90;;;;;;5076194;28;20277;-65
2022/04/15 00:30:11;;;;;;;144.60;136.85;;;11.60;99.90;;;;;;5075940;28;20205;-65
2022/04/15 00:32:37;;;;;;;145.90;137.60;;;11.60;99.90;;;;;;5075828;28;20191;-66
2022/04/15 00:35:04;;;;;;;121.35;114.38;;;11.60;99.90;;;;;;5094109;28;20189;-65
2022/04/15 00:37:31;;;;;;;108.13;101.65;;;11.60;99.90;;;;;;5068032;28;20177;-65
2022/04/15 00:39:57;;;;;;;96.90;90.28;;;11.60;99.90;;;;;;5083618;28;20271;-67
2022/04/15 00:42:23;;;;;;;92.50;86.63;;;11.60;99.90;;;;;;5059555;28;20208;-65
2022/04/15 00:45:00;;;;;;;103.75;97.25;;;11.60;99.90;;;;;;5075370;28;20213;-65
2022/04/15 00:47:53;;;;;;;96.20;89.63;;;11.50;99.90;;;;;;5093234;28;20184;-65
2022/04/15 00:50:30;;;;;;;96.78;89.45;;;11.50;99.90;;;;;;5081009;28;20640;-65
2022/04/15 00:52:59;;;;;;;84.35;78.20;;;11.50;99.90;;;;;;5085420;28;20637;-65
2022/04/15 00:55:25;;;;;;;93.55;87.65;;;11.50;99.90;;;;;;5075814;28;20184;-65
2022/04/15 00:57:55;;;;;;;147.50;139.50;;;11.40;99.90;;;;;;5057207;28;20630;-65
2022/04/15 01:00:22;;;;;;;240.85;229.45;;;11.40;99.90;;;;;;5093626;28;20241;-65
2022/04/15 01:02:48;;;;;;;364.33;348.75;;;11.40;99.90;;;;;;5057980;28;20195;-65
2022/04/15 01:05:15;;;;;;;376.73;359.55;;;11.30;99.90;;;;;;5074596;28;20234;-65
2022/04/15 01:07:51;;;;;;;396.98;378.95;;;11.30;99.90;;;;;;5092762;28;20241;-65
2022/04/15 01:10:20;;;;;;;426.20;406.77;;;11.20;99.90;;;;;;5093159;28;20540;-65
2022/04/15 01:12:56;;;;;;;472.33;451.43;;;11.20;99.90;;;;;;5059805;28;20188;-65
2022/04/15 01:15:24;;;;;;;480.67;458.67;;;11.20;99.90;;;;;;5059091;28;20214;-65
2022/04/15 01:17:50;;;;;;;529.42;504.75;;;11.20;99.90;;;;;;5092720;28;20233;-64
2022/04/15 01:20:16;;;;;;;508.05;484.58;;;11.10;99.90;;;;;;5074297;28;20202;-65
2022/04/15 01:22:47;;;;;;;558.47;532.00;;;11.10;99.90;;;;;;5074087;28;20192;-65
2022/04/15 01:25:17;;;;;;;576.13;548.57;;;11.10;99.90;;;;;;5074903;28;20177;-65
2022/04/15 01:27:49;;;;;;;569.83;542.93;;;11.00;99.90;;;;;;5093236;28;20181;-65
2022/04/15 01:30:17;;;;;;;580.70;553.60;;;11.00;99.90;;;;;;5092574;28;20669;-66
2022/04/15 01:32:43;;;;;;;586.80;558.67;;;11.00;99.90;;;;;;5074062;28;20188;-66
2022/04/15 01:35:10;;;;;;;637.73;606.00;;;11.00;99.90;;;;;;5074954;28;20196;-65
2022/04/15 01:37:37;;;;;;;636.47;604.20;;;11.00;99.90;;;;;;5092953;28;20307;-64
2022/04/15 01:40:04;;;;;;;671.10;636.63;;;11.00;99.90;;;;;;5065833;28;20181;-64
2022/04/15 01:42:30;;;;;;;700.87;663.83;;;11.00;99.90;;;;;;5051112;28;20181;-64
2022/04/15 01:44:56;;;;;;;746.20;705.07;;;11.00;99.90;;;;;;5091257;28;20374;-64
2022/04/15 01:47:21;;;;;;;706.33;668.63;;;11.00;99.90;;;;;;5092843;28;20229;-64
2022/04/15 01:49:47;;;;;;;741.83;701.35;;;10.90;99.90;;;;;;5057397;28;20219;-64
2022/04/15 01:52:12;;;;;;;755.20;713.07;;;10.90;99.90;;;;;;5065925;28;20195;-64
2022/04/15 01:54:38;;;;;;;730.43;690.87;;;10.90;99.90;;;;;;5092799;28;20578;-63
2022/04/15 01:57:04;;;;;;;729.33;690.23;;;10.80;99.90;;;;;;5073243;28;20587;-64
2022/04/15 01:59:30;;;;;;;723.53;684.93;;;10.80;99.90;;;;;;5092213;28;20228;-64
2022/04/15 02:01:55;;;;;;;717.73;679.63;;;10.70;99.90;;;;;;5057891;28;20181;-64
2022/04/15 02:04:25;;;;;;;718.93;680.57;;;10.70;99.90;;;;;;5086612;28;20589;-64
2022/04/15 02:06:51;;;;;;;721.07;682.57;;;10.70;99.90;;;;;;5074571;28;20188;-64
2022/04/15 02:09:18;;;;;;;723.57;684.60;;;10.60;99.90;;;;;;5074397;28;20185;-65
2022/04/15 02:11:44;;;;;;;722.57;683.93;;;10.60;99.90;;;;;;5091477;28;20185;-64
2022/04/15 02:14:10;;;;;;;731.73;692.10;;;10.60;99.90;;;;;;5074547;28;20176;-64
2022/04/15 02:16:36;;;;;;;743.40;702.37;;;10.60;99.90;;;;;;5075678;28;20195;-64
2022/04/15 02:19:02;;;;;;;739.27;698.93;;;10.60;99.90;;;;;;5085973;28;20188;-66
2022/04/15 02:21:28;;;;;;;769.30;726.73;;;10.50;99.90;;;;;;5093054;28;20196;-64
2022/04/15 02:23:54;;;;;;;759.13;717.37;;;10.50;99.90;;;;;;5059786;28;20374;-64
2022/04/15 02:26:19;;;;;;;748.53;707.40;;;10.50;99.90;;;;;;5077926;28;20177;-64
2022/04/15 02:28:45;;;;;;;774.30;731.00;;;10.50;99.90;;;;;;5073592;28;20283;-65
2022/04/15 02:31:11;;;;;;;789.33;744.53;;;10.50;99.90;;;;;;5073790;28;20212;-63
2022/04/15 02:33:36;;;;;;;787.83;743.40;;;10.50;99.90;;;;;;5090979;28;20173;-64
2022/04/15 02:36:02;;;;;;;796.17;750.60;;;10.40;99.90;;;;;;5056358;28;20181;-64
2022/04/15 02:38:28;;;;;;;767.63;724.67;;;10.40;99.90;;;;;;5074086;28;20621;-64
2022/04/15 02:40:54;;;;;;;768.73;725.40;;;10.40;99.90;;;;;;5058041;28;20268;-65
2022/04/15 02:43:20;;;;;;;779.17;735.40;;;10.30;99.90;;;;;;5056969;28;20213;-64
2022/04/15 02:45:47;;;;;;;775.73;732.50;;;10.30;99.90;;;;;;5091779;28;20188;-64
2022/04/15 02:48:13;;;;;;;768.03;725.60;;;10.30;99.90;;;;;;5074422;28;20181;-64
2022/04/15 02:50:39;;;;;;;781.87;738.60;;;10.30;99.90;;;;;;5057798;28;20217;-64
2022/04/15 02:53:05;;;;;;;794.77;749.53;;;10.30;99.90;;;;;;5070484;28;20207;-64
2022/04/15 02:55:31;;;;;;;807.37;760.83;;;10.30;99.90;;;;;;5074194;28;20196;-64
2022/04/15 02:57:57;;;;;;;814.30;766.73;;;10.20;99.90;;;;;;5059685;28;20189;-65
2022/04/15 03:00:22;;;;;;;827.47;778.83;;;10.30;99.90;;;;;;5082567;28;20230;-65
2022/04/15 03:02:48;;;;;;;809.20;762.47;;;10.20;99.90;;;;;;5095854;28;20374;-64
2022/04/15 03:05:14;;;;;;;829.73;780.57;;;10.20;99.90;;;;;;5095569;28;20188;-63
2022/04/15 03:07:40;;;;;;;833.30;783.43;;;10.20;99.90;;;;;;5095483;28;20185;-63
2022/04/15 03:10:07;;;;;;;816.90;769.27;;;10.20;99.90;;;;;;5077612;28;20669;-63
2022/04/15 03:12:35;;;;;;;808.97;762.27;;;10.20;99.90;;;;;;5060765;28;20200;-63
2022/04/15 03:15:01;;;;;;;800.20;754.40;;;10.10;99.90;;;;;;5095658;28;20266;-63
2022/04/15 03:17:26;;;;;;;780.07;735.80;;;10.10;99.90;;;;;;5095721;28;20189;-63
2022/04/15 03:19:52;;;;;;;788.93;743.87;;;10.10;99.90;;;;;;5095104;28;20192;-65
2022/04/15 03:22:19;;;;;;;798.87;753.37;;;10.10;99.90;;;;;;5095077;28;20176;-64
2022/04/15 03:24:45;;;;;;;808.17;761.03;;;10.10;99.90;;;;;;5066508;28;20181;-63
2022/04/15 03:27:14;;;;;;;784.70;740.30;;;10.00;99.90;;;;;;5095476;28;20226;-63
2022/04/15 03:29:39;;;;;;;802.60;756.17;;;10.00;99.90;;;;;;5059974;28;20233;-63
2022/04/15 03:32:05;;;;;;;807.23;759.93;;;10.00;99.90;;;;;;5096219;28;20561;-63
2022/04/15 03:34:32;;;;;;;796.33;750.77;;;10.00;99.90;;;;;;5094528;28;20266;-64
2022/04/15 03:36:58;;;;;;;768.13;725.60;;;10.00;99.90;;;;;;5096235;28;20594;-64
2022/04/15 03:39:23;;;;;;;802.33;756.37;;;9.90;99.90;;;;;;5094925;28;20184;-63
2022/04/15 03:41:49;;;;;;;781.77;738.10;;;9.90;99.90;;;;;;5075897;28;20537;-64
2022/04/15 03:44:15;;;;;;;815.90;768.10;;;9.90;99.90;;;;;;5076686;28;20560;-63
2022/04/15 03:46:41;;;;;;;840.23;790.00;;;9.80;99.90;;;;;;5059858;28;20188;-64
2022/04/15 03:49:07;;;;;;;842.73;792.47;;;9.90;99.90;;;;;;5094746;28;20184;-63
2022/04/15 03:51:34;;;;;;;836.30;786.40;;;9.80;99.90;;;;;;5076227;28;20209;-64
2022/04/15 03:53:59;;;;;;;817.03;768.87;;;9.80;99.90;;;;;;5076999;28;20279;-64
2022/04/15 03:56:26;;;;;;;811.67;764.47;;;9.70;99.90;;;;;;5059241;28;20283;-65
2022/04/15 03:58:52;;;;;;;836.67;786.67;;;9.70;99.90;;;;;;5094387;28;20616;-64
2022/04/15 04:01:18;;;;;;;809.93;762.87;;;9.70;99.90;;;;;;5060615;28;20204;-64
2022/04/15 04:03:45;;;;;;;805.30;758.30;;;9.70;99.90;;;;;;5094819;28;20185;-64
2022/04/15 04:06:10;;;;;;;835.33;785.67;;;9.60;99.90;;;;;;5067318;28;20637;-64
2022/04/15 04:08:36;;;;;;;831.13;781.60;;;9.60;99.90;;;;;;5093082;28;20215;-64
2022/04/15 04:11:01;;;;;;;831.60;782.00;;;9.60;99.90;;;;;;5093267;28;20592;-65
2022/04/15 04:13:27;;;;;;;818.60;770.40;;;9.50;99.90;;;;;;5093873;28;20638;-64
2022/04/15 04:15:53;;;;;;;817.93;769.90;;;9.50;99.90;;;;;;5076503;28;20645;-63
2022/04/15 04:18:21;;;;;;;802.50;756.17;;;9.50;99.90;;;;;;5076637;28;20214;-64
2022/04/15 04:20:47;;;;;;;822.87;774.00;;;9.50;99.90;;;;;;5044531;28;20197;-64
2022/04/15 04:23:13;;;;;;;813.70;766.27;;;9.50;99.90;;;;;;5090927;28;20275;-64
2022/04/15 04:25:39;;;;;;;827.50;779.03;;;9.50;99.90;;;;;;5093306;28;20299;-64
2022/04/15 04:28:05;;;;;;;842.30;792.17;;;9.40;99.90;;;;;;5093267;28;20181;-64
2022/04/15 04:30:30;;;;;;;846.90;796.03;;;9.40;99.90;;;;;;5063845;28;20221;-64
2022/04/15 04:32:59;;;;;;;843.93;793.73;;;9.30;99.90;;;;;;5076765;28;20184;-64
2022/04/15 04:35:25;;;;;;;813.63;765.57;;;9.30;99.90;;;;;;5076444;28;20189;-64
2022/04/15 04:37:50;;;;;;;785.83;741.60;;;9.30;99.90;;;;;;5074765;28;20660;-64
2022/04/15 04:40:17;;;;;;;821.23;773.53;;;9.30;99.90;;;;;;5094187;28;20192;-67
2022/04/15 04:42:44;;;;;;;807.40;761.17;;;9.30;99.90;;;;;;5074835;28;20379;-64
2022/04/15 04:45:10;;;;;;;800.63;755.07;;;9.30;99.90;;;;;;5075814;28;20188;-63
2022/04/15 04:47:38;;;;;;;816.53;769.17;;;9.30;99.90;;;;;;5055660;28;20275;-64
2022/04/15 04:50:05;;;;;;;837.53;787.73;;;9.30;99.90;;;;;;5066883;28;20669;-64
2022/04/15 04:52:30;;;;;;;833.03;783.70;;;9.30;99.90;;;;;;5064926;28;20189;-64
2022/04/15 04:54:56;;;;;;;813.07;765.53;;;9.20;99.90;;;;;;5058858;28;20185;-64
2022/04/15 04:57:22;;;;;;;828.73;780.27;;;9.20;99.90;;;;;;5058618;28;20196;-64
2022/04/15 04:59:47;;;;;;;660.17;626.40;;;9.20;99.90;;;;;;5093391;28;20235;-64
2022/04/15 05:02:13;;;;;;;641.77;609.80;;;9.20;99.90;;;;;;5075116;28;20271;-67
2022/04/15 05:04:40;;;;;;;643.63;612.03;;;9.20;99.90;;;;;;5074872;28;20601;-64
2022/04/15 05:07:06;;;;;;;648.60;616.10;;;9.20;99.90;;;;;;5074283;28;20225;-65
2022/04/15 05:09:32;;;;;;;650.30;617.53;;;9.20;99.90;;;;;;5075502;28;20204;-63
2022/04/15 05:11:57;;;;;;;654.27;621.27;;;9.20;99.90;;;;;;5075181;28;20276;-64
2022/04/15 05:14:23;;;;;;;673.30;639.47;;;9.20;99.90;;;;;;5075191;28;20725;-64
2022/04/15 05:16:49;;;;;;;644.83;612.53;;;9.20;99.90;;;;;;5074466;28;20193;-64
2022/04/15 05:19:14;;;;;;;622.40;591.97;;;9.30;99.90;;;;;;5074730;28;20545;-64
2022/04/15 05:21:40;;;;;;;619.23;588.47;;;9.30;99.90;;;;;;5069242;28;20196;-64
2022/04/15 05:24:09;;;;;;;664.90;630.70;;;9.30;99.90;;;;;;5070540;28;20185;-64
2022/04/15 05:26:41;;;;;;;629.57;598.17;;;9.40;99.90;;;;;;5059709;28;20192;-63
2022/04/15 05:29:08;;;;;;;645.30;612.13;;;9.30;99.90;;;;;;5068788;28;20188;-64
2022/04/15 05:31:34;;;;;;;649.27;616.43;;;9.40;99.90;;;;;;5075926;28;20205;-64
2022/04/15 05:34:00;;;;;;;639.13;607.27;;;9.50;99.90;;;;;;5074634;28;20189;-64
2022/04/15 05:36:26;;;;;;;637.97;606.30;;;9.50;99.90;;;;;;5083429;28;20306;-63
2022/04/15 05:38:52;;;;;;;648.20;615.53;;;9.60;99.90;;;;;;5073956;28;20272;-67
2022/04/15 05:41:18;;;;;;;674.23;639.73;;;9.50;99.90;;;;;;5060336;28;20189;-63
2022/04/15 05:43:43;;;;;;;621.50;590.73;;;9.60;99.90;;;;;;5074678;28;20185;-63
2022/04/15 05:46:10;;;;;;;607.53;578.37;;;9.60;99.90;;;;;;5058133;28;20192;-64
2022/04/15 05:48:36;;;;;;;562.17;535.67;;;9.70;99.90;;;;;;5074585;28;20661;-64
2022/04/15 05:51:02;;;;;;;549.40;523.33;;;9.70;99.90;;;;;;5074324;28;20208;-63
2022/04/15 05:53:28;;;;;;;575.60;548.10;;;9.70;99.90;;;;;;5073639;28;20259;-64
2022/04/15 05:55:53;;;;;;;580.70;552.60;;;9.80;99.90;;;;;;5047583;28;20599;-64
2022/04/15 05:58:19;;;;;;;556.17;530.23;;;9.90;99.90;;;;;;5052229;28;20565;-64
2022/04/15 06:00:45;;;;;;;583.93;556.13;;;10.00;99.90;;;;;;5057914;28;20197;-64
2022/04/15 06:03:11;;;;;;;608.30;578.73;;;10.10;99.90;;;;;;5067689;28;20188;-63
2022/04/15 06:05:37;;;;;;;547.87;521.37;;;10.20;99.90;;;;;;5058163;28;20195;-64
2022/04/15 06:08:02;;;;;;;495.67;472.57;;;10.30;99.90;;;;;;5073773;28;20267;-64
2022/04/15 06:10:30;;;;;;;543.13;516.83;;;10.40;99.90;;;;;;5092333;28;20220;-63
2022/04/15 06:13:04;;;;;;;542.70;516.70;;;10.50;99.90;;;;;;5073900;28;20185;-66
2022/04/15 06:15:33;;;;;;;489.60;467.03;;;10.60;99.90;;;;;;5057996;28;20661;-64
2022/04/15 06:18:02;;;;;;;451.50;430.27;;;10.60;99.90;;;;;;5092368;28;20272;-64
2022/04/15 06:20:28;;;;;;;455.33;434.43;;;10.80;99.90;;;;;;5073679;28;20192;-64
2022/04/15 06:22:54;;;;;;;413.73;393.87;;;10.80;99.90;;;;;;5092178;28;20188;-64
2022/04/15 06:25:20;;;;;;;364.60;347.60;;;10.80;99.90;;;;;;5092457;28;20192;-65
2022/04/15 06:27:46;;;;;;;321.57;306.43;;;10.80;99.90;;;;;;5073385;28;20253;-64
2022/04/15 06:30:12;;;;;;;249.00;236.33;;;10.80;99.90;;;;;;5068541;28;20565;-64
2022/04/15 06:32:38;;;;;;;171.63;161.52;;;10.80;99.90;;;;;;5059677;28;20180;-64
2022/04/15 06:35:04;;;;;;;113.63;105.88;;;10.80;99.90;;;;;;5094234;28;20177;-64
2022/04/15 06:37:30;;;;;;;83.90;77.63;;;10.90;99.90;;;;;;5078121;28;20269;-64
2022/04/15 06:39:56;;;;;;;81.87;75.07;;;10.90;99.90;;;;;;5061487;28;20233;-63
2022/04/15 06:42:23;;;;;;;111.40;103.40;;;10.90;99.90;;;;;;5069229;28;20287;-64
2022/04/15 06:44:49;;;;;;;218.90;207.43;;;10.90;99.90;;;;;;5060987;28;20211;-64
2022/04/15 06:47:16;;;;;;;360.67;343.63;;;10.80;99.90;;;;;;5078011;28;20208;-64
2022/04/15 06:49:42;;;;;;;766.27;721.57;;;10.70;99.90;;;;;;5096523;28;20216;-63
2022/04/15 06:52:08;;;;;;;975.63;912.33;;;10.70;99.90;;;;;;5096140;28;20196;-63
2022/04/15 06:54:34;;;;;;;983.70;919.77;;;10.60;99.90;;;;;;5077159;28;20189;-63
2022/04/15 06:57:00;;;;;;;965.27;903.13;;;10.70;99.90;;;;;;5082353;28;20649;-64
2022/04/15 06:59:25;;;;;;;967.40;905.40;;;10.80;99.90;;;;;;5076743;28;20203;-65
2022/04/15 07:01:51;;;;;;;928.23;869.63;;;11.10;99.90;;;;;;5060881;28;20272;-63
2022/04/15 07:04:17;;;;;;;933.33;874.63;;;11.00;99.90;;;;;;5088202;28;20592;-63
2022/04/15 07:06:43;;;;;;;936.20;877.07;;;10.80;99.90;;;;;;5058473;28;20189;-63
2022/04/15 07:09:09;;;;;;;956.57;895.60;;;10.70;99.90;;;;;;5059499;28;20185;-63
2022/04/15 07:11:34;;;;;;;957.87;896.20;;;10.80;99.90;;;;;;5045858;28;20275;-64
2022/04/15 07:14:00;;;;;;;920.63;863.25;;;11.10;99.90;;;;;;5089472;28;20180;-63
2022/04/15 07:16:26;;;;;;;902.83;846.97;;;11.30;99.90;;;;;;5075640;28;20665;-64
2022/04/15 07:18:52;;;;;;;899.97;843.67;;;11.60;99.90;;;;;;5069359;28;20702;-63
2022/04/15 07:21:18;;;;;;;881.30;827.22;;;11.70;99.90;;;;;;5095730;28;20185;-65
2022/04/15 07:23:45;;;;;;;913.13;856.30;;;11.70;99.90;;;;;;5061392;28;20192;-64
2022/04/15 07:26:10;;;;;;;914.90;858.25;;;11.60;99.90;;;;;;5077298;28;20188;-64
2022/04/15 07:28:36;;;;;;;888.50;833.25;;;11.80;99.90;;;;;;5095393;28;20196;-64
2022/04/15 07:31:02;;;;;;;879.38;825.58;;;11.90;99.90;;;;;;5060462;28;20223;-64
2022/04/15 07:33:27;;;;;;;949.45;889.17;;;12.10;99.90;;;;;;5067369;28;20276;-64
2022/04/15 07:35:53;;;;;;;1079.85;998.30;;;13.00;99.90;;;;;;5079482;28;20201;-63
2022/04/15 07:38:19;;;;;;;1134.20;999.90;;;14.30;99.90;;;;;;5088667;28;20673;-64
2022/04/15 07:40:44;;;;;;;1113.15;999.90;;;15.70;99.90;;;;;;5081529;28;20658;-64
2022/04/15 07:43:10;;;;;;;1075.88;999.90;;;16.60;99.90;;;;;;5088129;28;20180;-64
2022/04/15 07:45:36;;;;;;;1033.40;963.97;;;17.00;99.90;;;;;;5085996;28;20197;-64
2022/04/15 07:48:01;;;;;;;984.60;920.35;;;17.30;99.90;;;;;;5087832;28;20185;-65
2022/04/15 07:50:27;;;;;;;942.45;882.40;;;18.20;99.90;;;;;;5093708;28;20208;-65
2022/04/15 07:52:58;;;;;;;889.45;834.33;;;19.50;99.90;;;;;;5054059;28;20624;-65
2022/04/15 07:55:24;;;;;;;830.03;781.38;;;20.20;99.90;;;;;;5074919;28;20264;-66
2022/04/15 07:57:49;;;;;;;776.05;732.95;;;20.90;99.90;;;;;;5061045;28;20272;-65
2022/04/15 08:00:15;;;;;;;749.35;708.60;;;21.50;99.90;;;;;;5054052;28;20596;-66
2022/04/15 08:02:41;;;;;;;699.63;664.28;;;22.10;99.90;;;;;;5065774;28;20607;-65
2022/04/15 08:05:07;;;;;;;643.72;612.65;;;22.90;99.90;;;;;;5067695;28;20280;-65
2022/04/15 08:07:34;;;;;;;604.50;576.28;;;22.40;99.90;;;;;;5053717;28;20666;-67
2022/04/15 08:10:00;;;;;;;578.63;552.08;;;22.30;99.90;;;;;;5067634;28;20558;-68
2022/04/15 08:12:26;;;;;;;554.50;529.58;;;22.20;99.90;;;;;;5065053;28;20592;-68
2022/04/15 08:14:52;;;;;;;535.35;511.33;;;21.60;99.90;;;;;;5058354;28;20209;-68
2022/04/15 08:17:19;;;;;;;508.98;487.15;;;21.70;99.90;;;;;;5092740;28;20661;-68
2022/04/15 08:19:46;;;;;;;474.10;454.05;;;22.30;99.90;;;;;;5066094;28;20192;-68
2022/04/15 08:22:11;;;;;;;465.73;446.05;;;22.40;99.90;;;;;;5072721;28;20681;-68
2022/04/15 08:24:42;;;;;;;422.70;405.40;;;22.60;99.90;;;;;;5043996;28;20185;-68
2022/04/15 08:27:11;;;;;;;371.95;356.70;;;23.00;99.90;;;;;;5086298;28;20184;-69
2022/04/15 08:29:39;;;;;;;346.88;332.65;;;23.70;99.90;;;;;;5056653;28;20238;-69
2022/04/15 08:32:08;;;;;;;303.45;290.35;;;24.30;99.90;;;;;;5074155;28;20263;-69
2022/04/15 08:34:38;;;;;;;273.45;262.17;;;24.40;99.90;;;;;;5083814;28;20713;-69
2022/04/15 08:37:04;;;;;;;262.33;251.73;;;25.00;99.90;;;;;;5086334;28;20645;-69
2022/04/15 08:39:30;;;;;;;240.43;230.48;;;25.50;99.90;;;;;;5073992;28;20265;-69
2022/04/15 08:41:58;;;;;;;159.23;152.63;;;25.80;99.90;;;;;;5057562;28;20649;-68
2022/04/15 08:44:25;;;;;;;164.15;156.77;;;25.00;99.90;;;;;;5089644;28;20177;-69
2022/04/15 08:46:51;;;;;;;149.85;143.18;;;24.30;99.90;;;;;;5063490;28;20177;-69
2022/04/15 08:49:19;;;;;;;141.80;135.55;;;24.30;99.90;;;;;;5062777;28;20231;-69
2022/04/15 08:51:50;;;;;;;135.93;130.40;;;24.40;99.90;;;;;;5075194;28;20215;-68
2022/04/15 08:54:16;;;;;;;163.35;156.60;;;24.20;99.90;;;;;;5074454;28;20196;-69
2022/04/15 08:56:44;;;;;;;155.60;149.52;;;23.90;99.90;;;;;;5064313;28;20181;-68
2022/04/15 08:59:10;;;;;;;149.13;143.07;;;23.50;99.90;;;;;;5044643;28;20199;-68
2022/04/15 09:01:36;;;;;;;163.23;156.48;;;21.90;99.90;;;;;;5076068;28;20268;-68
2022/04/15 09:04:03;;;;;;;221.00;211.95;;;20.20;99.90;;;;;;5042219;28;20209;-67
2022/04/15 09:06:31;;;;;;;231.07;221.85;;;19.40;99.90;;;;;;5060388;28;20189;-67
2022/04/15 09:09:02;;;;;;;266.92;256.45;;;18.60;99.90;;;;;;5076035;28;20545;-69
2022/04/15 09:11:49;;;;;;;244.02;234.13;;;18.20;99.90;;;;;;5082000;28;20212;-67
2022/04/15 09:14:15;;;;;;;163.30;156.25;;;18.00;99.90;;;;;;5062394;28;20181;-70
2022/04/15 09:16:46;;;;;;;128.50;122.68;;;17.50;99.90;;;;;;5065063;28;20196;-68
2022/04/15 09:19:12;;;;;;;169.77;162.48;;;17.30;99.90;;;;;;5084112;28;20170;-67
2022/04/15 09:21:48;;;;;;;191.20;183.27;;;16.90;99.90;;;;;;5082468;28;20180;-67
2022/04/15 09:24:14;;;;;;;278.23;266.60;;;16.80;99.90;;;;;;5088928;28;20200;-68
2022/04/15 09:26:44;;;;;;;378.10;363.17;;;16.60;99.90;;;;;;5062466;28;20185;-67
2022/04/15 09:29:12;;;;;;;384.58;369.23;;;16.70;99.90;;;;;;5057991;28;20215;-67
2022/04/15 09:31:38;;;;;;;418.60;401.55;;;17.00;99.90;;;;;;5092488;28;20300;-66
2022/04/15 09:34:06;;;;;;;409.33;392.52;;;16.90;99.90;;;;;;5075061;28;20322;-65
2022/04/15 09:36:37;;;;;;;457.42;438.70;;;16.60;99.90;;;;;;5074472;28;20191;-66
2022/04/15 09:39:11;;;;;;;496.48;475.65;;;16.50;99.90;;;;;;5092626;28;20265;-66
2022/04/15 09:42:02;;;;;;;513.45;491.33;;;16.40;99.90;;;;;;5074508;28;20200;-66
2022/04/15 09:44:32;;;;;;;559.03;534.25;;;16.40;99.90;;;;;;5058561;28;20183;-67
2022/04/15 09:47:03;;;;;;;579.25;552.85;;;16.50;99.90;;;;;;5093312;28;20195;-66
2022/04/15 09:49:32;;;;;;;616.22;587.38;;;16.50;99.90;;;;;;5092004;28;20185;-67
2022/04/15 09:51:59;;;;;;;635.85;605.55;;;16.50;99.90;;;;;;5091446;28;20173;-66
2022/04/15 09:54:28;;;;;;;646.60;615.63;;;16.50;99.90;;;;;;5090450;28;20565;-66
2022/04/15 09:56:57;;;;;;;661.55;629.38;;;16.60;99.90;;;;;;5056923;28;20181;-67
2022/04/15 09:59:24;;;;;;;702.05;666.60;;;16.30;99.90;;;;;;5090966;28;20630;-67
2022/04/15 10:01:58;;;;;;;721.50;684.10;;;16.40;99.90;;;;;;5090537;28;20189;-67
2022/04/15 10:04:25;;;;;;;746.42;706.75;;;16.40;99.90;;;;;;5090055;28;20536;-68
2022/04/15 10:06:52;;;;;;;751.03;711.13;;;16.50;99.90;;;;;;5067513;28;20185;-67
2022/04/15 10:09:18;;;;;;;762.38;721.25;;;16.60;99.90;;;;;;5072020;28;20190;-66
2022/04/15 10:11:46;;;;;;;765.63;724.33;;;16.60;99.90;;;;;;5057658;28;20554;-67
2022/04/15 10:14:15;;;;;;;781.65;738.88;;;16.70;99.90;;;;;;5073084;28;20208;-67
2022/04/15 10:16:42;;;;;;;791.95;748.05;;;16.90;99.90;;;;;;5092132;28;20187;-66
2022/04/15 10:19:09;;;;;;;793.85;749.58;;;17.20;99.90;;;;;;5074350;28;20672;-66
2022/04/15 10:21:44;;;;;;;811.05;764.65;;;17.30;99.90;;;;;;5091417;28;20202;-67
2022/04/15 10:24:10;;;;;;;809.10;763.15;;;17.60;99.90;;;;;;5071367;28;20219;-67
2022/04/15 10:26:41;;;;;;;805.40;759.80;;;17.30;99.90;;;;;;5054929;28;20185;-67
2022/04/15 10:29:09;;;;;;;810.85;764.58;;;16.90;99.90;;;;;;5059402;28;20181;-67
2022/04/15 10:31:54;;;;;;;820.13;772.88;;;16.70;99.90;;;;;;5064707;28;20217;-67
2022/04/15 10:34:21;;;;;;;867.28;814.58;;;16.40;99.90;;;;;;5091920;28;20188;-69
2022/04/15 10:36:50;;;;;;;868.83;816.00;;;16.50;99.90;;;;;;5085469;28;20231;-67
2022/04/15 10:39:22;;;;;;;874.53;820.83;;;16.30;99.90;;;;;;5077554;28;20172;-67
2022/04/15 10:41:53;;;;;;;887.30;833.03;;;16.20;99.90;;;;;;5088461;28;20189;-67
2022/04/15 10:44:26;;;;;;;883.45;829.00;;;16.30;99.90;;;;;;5061295;28;20618;-64
2022/04/15 10:46:52;;;;;;;898.58;843.42;;;16.20;99.90;;;;;;5056715;28;20190;-66
2022/04/15 10:49:23;;;;;;;906.10;849.95;;;16.30;99.90;;;;;;5067445;28;20182;-66
2022/04/15 10:51:59;;;;;;;912.17;855.78;;;16.50;99.90;;;;;;5086505;28;20419;-66
2022/04/15 10:54:38;;;;;;;916.05;859.10;;;16.60;99.90;;;;;;5091432;28;20228;-66
2022/04/15 10:57:21;;;;;;;923.20;865.63;;;16.60;99.90;;;;;;5085039;28;20255;-66
2022/04/15 11:02:48;;;;;;;918.83;861.65;;;16.40;99.90;;;;;;5083177;28;20200;-66
2022/04/15 11:05:42;;;;;;;915.33;858.65;;;16.20;99.90;;;;;;5067112;28;20549;-67
2022/04/15 11:08:12;;;;;;;918.22;861.28;;;16.20;99.90;;;;;;5073768;28;20191;-67
2022/04/15 11:11:01;;;;;;;932.33;874.08;;;16.10;99.90;;;;;;5091024;28;20224;-67
2022/04/15 11:13:47;;;;;;;932.20;874.10;;;16.20;99.90;;;;;;5079517;28;20182;-68
2022/04/15 11:16:14;;;;;;;936.03;877.47;;;16.20;99.90;;;;;;5066406;28;20196;-67
2022/04/15 11:18:58;;;;;;;923.13;865.63;;;16.20;99.90;;;;;;5073748;28;20306;-68
2022/04/15 11:21:24;;;;;;;930.20;872.40;;;16.20;99.90;;;;;;5091957;28;20196;-66
2022/04/15 11:23:51;;;;;;;936.78;878.38;;;16.30;99.90;;;;;;5094623;28;20180;-67
2022/04/15 11:26:18;;;;;;;935.10;876.65;;;16.60;99.90;;;;;;5051292;28;20658;-67
2022/04/15 11:28:46;;;;;;;933.45;875.17;;;16.80;99.90;;;;;;5067975;28;20185;-68
2022/04/15 11:31:22;;;;;;;923.47;866.28;;;16.70;99.90;;;;;;5067610;28;20658;-67
2022/04/15 11:33:48;;;;;;;915.42;858.75;;;16.50;99.90;;;;;;5076615;28;20709;-67
2022/04/15 11:36:13;;;;;;;919.30;862.63;;;16.10;99.90;;;;;;5068226;28;20267;-65
2022/04/15 11:38:40;;;;;;;926.78;869.15;;;15.80;99.90;;;;;;5094027;28;20189;-65
2022/04/15 11:41:05;;;;;;;930.28;872.67;;;16.00;99.90;;;;;;5086760;28;20189;-65
2022/04/15 11:43:31;;;;;;;925.28;867.92;;;16.10;99.90;;;;;;5082138;28;20185;-65
2022/04/15 11:45:57;;;;;;;919.47;862.33;;;16.20;99.90;;;;;;5050994;28;20181;-66
2022/04/15 11:48:24;;;;;;;931.33;873.53;;;16.20;99.90;;;;;;5066484;28;20664;-66
2022/04/15 11:50:53;;;;;;;927.08;869.55;;;16.40;99.90;;;;;;5080121;28;20696;-66
2022/04/15 11:53:19;;;;;;;920.38;863.42;;;16.30;99.90;;;;;;5068377;28;20223;-66
2022/04/15 11:56:02;;;;;;;922.05;865.05;;;16.20;99.90;;;;;;5057396;28;20196;-65
2022/04/15 11:58:35;;;;;;;919.70;863.22;;;16.10;99.90;;;;;;5075118;28;20208;-66
2022/04/15 12:01:02;;;;;;;926.33;868.85;;;15.90;99.90;;;;;;5069151;28;20311;-67
2022/04/15 12:03:29;;;;;;;920.65;863.67;;;16.10;99.90;;;;;;5061556;28;20191;-67
2022/04/15 12:05:57;;;;;;;923.97;866.42;;;16.30;99.90;;;;;;5039735;28;20177;-65
2022/04/15 12:08:24;;;;;;;913.70;857.20;;;16.60;99.90;;;;;;5053080;28;20271;-66
2022/04/15 12:10:50;;;;;;;908.05;852.17;;;16.50;99.90;;;;;;5081651;28;20298;-66
2022/04/15 12:13:17;;;;;;;896.30;841.40;;;16.40;99.90;;;;;;5057167;28;20557;-66
2022/04/15 12:15:44;;;;;;;902.75;847.47;;;15.90;99.90;;;;;;5056655;28;20189;-66